createdAt,value
2023-01-19T00:04:01.499Z,98766.91
2023-01-19T00:09:04.352Z,98764.50
2023-01-19T00:14:08.465Z,98768.50
2023-01-19T00:19:12.510Z,98760.81
2023-01-19T00:24:15.455Z,98765.66
2023-01-19T00:29:20.329Z,98770.81
2023-01-19T00:34:23.377Z,98775.13
2023-01-19T00:39:26.149Z,98776.72
2023-01-19T00:44:30.268Z,98775.56
2023-01-19T00:49:33.005Z,98762.41
2023-01-19T00:54:35.818Z,98761.44
2023-01-19T00:59:39.946Z,98759.72
2023-01-19T01:04:42.706Z,98756.53
2023-01-19T01:09:45.479Z,98757.66
2023-01-19T01:14:49.903Z,98758.22
2023-01-19T01:19:52.663Z,98751.66
2023-01-19T01:24:55.417Z,98744.41
2023-01-19T01:29:59.498Z,98749.53
2023-01-19T01:35:02.249Z,98754.78
2023-01-19T01:40:05.789Z,98768.19
2023-01-19T01:45:24.540Z,98766.88
2023-01-19T01:50:29.539Z,98765.25
2023-01-19T01:55:32.513Z,98760.97
2023-01-19T02:00:50.896Z,98768.19
2023-01-19T02:05:57.521Z,98767.94
2023-01-19T02:11:19.440Z,98763.09
2023-01-19T02:16:23.640Z,98753.88
2023-01-19T02:21:32.989Z,98756.47
2023-01-19T02:26:40.170Z,98748.53
2023-01-19T02:31:43.282Z,98755.19
2023-01-19T02:36:50.271Z,98751.78
2023-01-19T02:41:56.854Z,98745.94
2023-01-19T02:46:59.665Z,98737.34
2023-01-19T02:52:02.621Z,98745.72
2023-01-19T02:57:31.349Z,98736.47
2023-01-19T03:02:38.886Z,98738.16
2023-01-19T03:07:50.379Z,98728.22
2023-01-19T03:13:00.961Z,98726.44
2023-01-19T03:18:05.119Z,98734.31
2023-01-19T03:23:11.402Z,98734.44
2023-01-19T03:28:16.149Z,98735.53
2023-01-19T03:33:26.080Z,98736.06
2023-01-19T03:38:30.133Z,98738.44
2023-01-19T03:43:35.077Z,98730.00
2023-01-19T03:48:38.459Z,98730.66
2023-01-19T03:53:41.406Z,98716.97
2023-01-19T03:58:45.722Z,98726.59
2023-01-19T04:03:48.497Z,98723.13
2023-01-19T04:08:52.103Z,98721.50
2023-01-19T04:13:56.222Z,98718.91
2023-01-19T04:18:58.971Z,98719.25
2023-01-19T04:24:01.716Z,98719.53
2023-01-19T04:29:05.824Z,98716.06
2023-01-19T04:34:08.571Z,98718.50
2023-01-19T04:39:11.719Z,98709.31
2023-01-19T04:44:15.999Z,98703.44
2023-01-19T04:49:18.739Z,98709.50
2023-01-19T04:54:21.751Z,98709.81
2023-01-19T04:59:25.868Z,98702.13
2023-01-19T05:04:28.686Z,98703.41
2023-01-19T05:09:31.458Z,98703.34
2023-01-19T05:14:35.580Z,98707.28
2023-01-19T05:19:38.365Z,98705.59
2023-01-19T05:24:41.442Z,98708.91
2023-01-19T05:29:45.525Z,98717.81
2023-01-19T05:34:48.253Z,98707.31
2023-01-19T05:39:50.970Z,98701.44
2023-01-19T05:44:55.048Z,98703.63
2023-01-19T05:49:57.798Z,98707.19
2023-01-19T05:55:00.522Z,98707.00
2023-01-19T06:00:05.575Z,98696.88
2023-01-19T06:05:11.960Z,98687.81
2023-01-19T06:10:14.686Z,98674.19
2023-01-19T06:15:19.155Z,98655.47
2023-01-19T06:20:21.899Z,98615.66
2023-01-19T06:25:25.965Z,98605.13
2023-01-19T06:30:30.196Z,98593.88
2023-01-19T06:35:32.982Z,98585.22
2023-01-19T06:40:35.894Z,98585.16
2023-01-19T06:45:40.270Z,98574.69
2023-01-19T06:50:45.965Z,98549.66
2023-01-19T06:55:48.825Z,98552.09
2023-01-19T07:00:53.222Z,98529.06
2023-01-19T07:05:56.861Z,98534.38
2023-01-19T07:11:22.362Z,98526.34
2023-01-19T07:16:25.238Z,98523.00
2023-01-19T07:21:29.291Z,98526.13
2023-01-19T07:26:32.165Z,98509.69
2023-01-19T07:31:36.331Z,98510.59
2023-01-19T07:36:39.071Z,98514.41
2023-01-19T07:41:41.801Z,98513.41
2023-01-19T07:46:45.871Z,98503.88
2023-01-19T07:51:48.594Z,98500.63
2023-01-19T07:56:54.603Z,98488.66
2023-01-19T08:01:59.444Z,98486.00
2023-01-19T08:07:03.795Z,98491.47
2023-01-19T08:12:06.913Z,98465.31
2023-01-19T08:17:13.834Z,98447.25
2023-01-19T08:22:16.633Z,98460.88
2023-01-19T08:27:19.364Z,98489.69
2023-01-19T08:32:23.438Z,98490.09
2023-01-19T08:37:26.173Z,98413.81
2023-01-19T08:42:28.884Z,98398.88
2023-01-19T08:47:33.095Z,98394.38
2023-01-19T08:52:35.923Z,98393.16
2023-01-19T08:57:39.648Z,98376.00
2023-01-19T09:02:43.868Z,98374.88
2023-01-19T09:07:48.046Z,98366.16
2023-01-19T09:12:50.789Z,98349.13
2023-01-19T09:17:54.850Z,98358.53
2023-01-19T09:22:57.689Z,98359.28
2023-01-19T09:28:00.837Z,98345.72
2023-01-19T09:33:07.534Z,98328.81
2023-01-19T09:38:11.039Z,98333.44
2023-01-19T09:43:15.832Z,98330.09
2023-01-19T09:48:32.242Z,98328.50
2023-01-19T09:53:47.891Z,98310.38
2023-01-19T09:58:51.927Z,98299.19
2023-01-19T10:04:19.072Z,98296.81
2023-01-19T10:09:27.275Z,98289.09
2023-01-19T10:14:34.169Z,98277.28
2023-01-19T10:19:39.511Z,98276.06
2023-01-19T10:24:43.669Z,98279.53
2023-01-19T10:29:46.806Z,98263.88
2023-01-19T10:34:51.741Z,98249.47
2023-01-19T10:39:56.589Z,98242.72
2023-01-19T10:44:59.433Z,98230.34
2023-01-19T10:50:08.474Z,98210.09
2023-01-19T10:55:25.293Z,98214.97
2023-01-19T11:00:37.701Z,98209.34
2023-01-19T11:05:42.091Z,98177.84
2023-01-19T11:10:53.660Z,98168.44
2023-01-19T11:15:58.006Z,98148.16
2023-01-19T11:21:03.689Z,98151.78
2023-01-19T11:26:06.773Z,98127.13
2023-01-19T11:31:19.263Z,98108.50
2023-01-19T11:36:25.399Z,98101.91
2023-01-19T11:41:29.694Z,98071.59
2023-01-19T11:46:34.580Z,98017.19
2023-01-19T11:51:47.674Z,98001.97
2023-01-19T11:56:52.136Z,97997.25
2023-01-19T12:01:57.737Z,97981.97
2023-01-19T12:07:07.434Z,97965.88
2023-01-19T12:12:13.875Z,97972.81
2023-01-19T12:17:26.971Z,97961.97
2023-01-19T12:22:35.607Z,97957.63
2023-01-19T12:27:41.365Z,97925.44
2023-01-19T12:32:44.107Z,97878.47
2023-01-19T12:37:48.383Z,97875.78
2023-01-19T12:42:57.760Z,97868.16
2023-01-19T12:48:01.917Z,97866.63
2023-01-19T12:53:08.360Z,97867.72
2023-01-19T12:58:17.723Z,97814.78
2023-01-19T13:03:44.148Z,97811.53
2023-01-19T13:09:01.632Z,97805.47
2023-01-19T13:14:37.020Z,97803.81
2023-01-19T13:19:50.525Z,97792.72
2023-01-19T13:25:08.851Z,97782.44
2023-01-19T13:30:13.276Z,97787.25
2023-01-19T13:35:18.884Z,97784.72
2023-01-19T13:40:24.147Z,97771.91
2023-01-19T13:45:30.347Z,97789.84
2023-01-19T13:50:35.449Z,97780.44
2023-01-19T13:55:39.498Z,97791.50
2023-01-19T14:00:46.950Z,97788.91
2023-01-19T14:05:52.339Z,97788.09
2023-01-19T14:11:03.221Z,97789.19
2023-01-19T14:16:08.535Z,97793.59
2023-01-19T14:21:12.816Z,97775.44
2023-01-19T14:26:46.460Z,97781.56
2023-01-19T14:31:51.497Z,97789.13
2023-01-19T14:36:54.282Z,97785.72
2023-01-19T14:41:59.976Z,97786.31
2023-01-19T14:47:03.123Z,97794.78
2023-01-19T14:52:07.945Z,97798.38
2023-01-19T14:57:14.041Z,97793.09
2023-01-19T15:02:18.510Z,97802.34
2023-01-19T15:07:21.855Z,97803.28
2023-01-19T15:12:26.793Z,97781.44
2023-01-19T15:17:29.440Z,97784.97
2023-01-19T15:22:32.139Z,97789.09
2023-01-19T15:27:36.300Z,97803.72
2023-01-19T15:32:43.630Z,97800.44
2023-01-19T15:37:46.365Z,97815.66
2023-01-19T15:42:50.647Z,97816.44
2023-01-19T15:47:53.331Z,97819.88
2023-01-19T15:52:56.021Z,97819.72
2023-01-19T15:58:02.404Z,97832.53
2023-01-19T16:03:23.336Z,97832.66
2023-01-19T16:08:26.054Z,97833.56
2023-01-19T16:13:31.027Z,97833.47
2023-01-19T16:18:34.031Z,97834.31
2023-01-19T16:23:36.737Z,97848.00
2023-01-19T16:28:40.791Z,97854.00
2023-01-19T16:33:43.728Z,97846.97
2023-01-19T16:38:46.482Z,97852.81
2023-01-19T16:43:54.375Z,97868.91
2023-01-19T16:49:00.319Z,97865.94
2023-01-19T16:54:03.165Z,97880.28
2023-01-19T16:59:07.322Z,97877.75
2023-01-19T17:04:11.163Z,97881.88
2023-01-19T17:09:14.475Z,97890.19
2023-01-19T17:14:20.854Z,97898.66
2023-01-19T17:19:23.541Z,97908.75
2023-01-19T17:24:26.225Z,97910.28
2023-01-19T17:29:30.277Z,97917.25
2023-01-19T17:34:33.575Z,97921.44
2023-01-19T17:39:37.316Z,97928.16
2023-01-19T17:44:42.346Z,97931.97
2023-01-19T17:49:44.983Z,97945.47
2023-01-19T17:54:47.676Z,97950.81
2023-01-19T17:59:51.728Z,97958.25
2023-01-19T18:04:54.486Z,97960.34
2023-01-19T18:09:58.268Z,97979.09
2023-01-19T18:15:04.080Z,97984.16
2023-01-19T18:20:07.949Z,97991.59
2023-01-19T18:25:10.768Z,98003.59
2023-01-19T18:30:16.218Z,98005.13
2023-01-19T18:35:19.124Z,98020.44
2023-01-19T18:40:21.976Z,98022.13
2023-01-19T18:45:26.090Z,98032.38
2023-01-19T18:50:28.884Z,98032.13
2023-01-19T18:55:31.567Z,98036.47
2023-01-19T19:00:35.773Z,98041.53
2023-01-19T19:05:38.686Z,98043.38
2023-01-19T19:10:42.128Z,98054.88
2023-01-19T19:15:46.184Z,98055.06
2023-01-19T19:20:48.902Z,98050.09
2023-01-19T19:25:51.599Z,98058.91
2023-01-19T19:31:06.289Z,98066.44
2023-01-19T19:36:10.652Z,98076.25
2023-01-19T19:41:15.846Z,98084.63
2023-01-19T19:46:21.495Z,98090.97
2023-01-19T19:51:26.995Z,98096.22
2023-01-19T19:56:31.332Z,98112.34
2023-01-19T20:01:35.509Z,98109.50
2023-01-19T20:06:40.988Z,98119.78
2023-01-19T20:11:44.600Z,98134.25
2023-01-19T20:16:48.788Z,98141.06
2023-01-19T20:21:51.508Z,98154.81
2023-01-19T20:26:56.205Z,98160.63
2023-01-19T20:32:00.319Z,98158.66
2023-01-19T20:37:04.654Z,98166.34
2023-01-19T20:42:11.176Z,98168.44
2023-01-19T20:47:15.234Z,98173.63
2023-01-19T20:52:17.929Z,98176.13
2023-01-19T20:57:20.615Z,98188.47
2023-01-19T21:02:28.368Z,98192.78
2023-01-19T21:07:31.212Z,98198.84
2023-01-19T21:12:33.875Z,98205.72
2023-01-19T21:17:38.018Z,98214.72
2023-01-19T21:22:40.906Z,98213.22
2023-01-19T21:27:43.587Z,98230.22
2023-01-19T21:32:47.625Z,98230.22
2023-01-19T21:37:50.568Z,98238.34
2023-01-19T21:42:53.916Z,98247.53
2023-01-19T21:47:57.955Z,98254.41
2023-01-19T21:53:00.811Z,98250.19
2023-01-19T21:58:03.562Z,98258.94
2023-01-19T22:03:07.717Z,98267.81
2023-01-19T22:08:10.550Z,98278.75
2023-01-19T22:13:13.304Z,98290.56
2023-01-19T22:18:17.344Z,98287.75
2023-01-19T22:23:20.040Z,98289.13
2023-01-19T22:28:22.880Z,98289.41
2023-01-19T22:33:29.030Z,98290.72
2023-01-19T22:38:31.722Z,98307.41
2023-01-19T22:43:34.426Z,98307.56
2023-01-19T22:48:40.321Z,98317.59
2023-01-19T22:53:43.061Z,98325.94
2023-01-19T22:58:46.632Z,98322.91
2023-01-19T23:03:51.259Z,98332.97
2023-01-19T23:08:55.770Z,98340.59
2023-01-19T23:13:59.238Z,98345.00
2023-01-19T23:19:03.306Z,98350.25
2023-01-19T23:24:06.576Z,98342.31
2023-01-19T23:29:13.130Z,98353.41
2023-01-19T23:34:17.509Z,98341.84
2023-01-19T23:39:21.754Z,98335.09
2023-01-19T23:44:24.499Z,98337.69
2023-01-19T23:49:28.695Z,98337.34
2023-01-19T23:54:31.374Z,98343.97
2023-01-19T23:59:34.110Z,98360.38
